createdAt,value
2023-03-11T00:00:22.584Z,29.55
2023-03-11T00:01:26.382Z,30.17
2023-03-11T00:02:30.061Z,31.90
2023-03-11T00:03:33.768Z,31.43
2023-03-11T00:04:37.629Z,28.52
2023-03-11T00:05:42.658Z,31.30
2023-03-11T00:06:46.283Z,32.33
2023-03-11T00:07:49.942Z,30.00
2023-03-11T00:08:53.625Z,30.13
2023-03-11T00:09:57.242Z,30.77
2023-03-11T00:11:01.346Z,30.38
2023-03-11T00:12:07.621Z,29.35
2023-03-11T00:13:13.706Z,30.33
2023-03-11T00:14:17.362Z,28.93
2023-03-11T00:15:21.201Z,29.83
2023-03-11T00:16:24.848Z,32.47
2023-03-11T00:17:28.753Z,30.92
2023-03-11T00:18:32.448Z,29.48
2023-03-11T00:19:36.116Z,30.07
2023-03-11T00:20:41.681Z,32.83
2023-03-11T00:21:45.444Z,31.52
2023-03-11T00:22:49.165Z,31.05
2023-03-11T00:23:52.828Z,30.15
2023-03-11T00:24:56.542Z,30.00
2023-03-11T00:26:00.286Z,31.38
2023-03-11T00:27:05.757Z,29.83
2023-03-11T00:28:09.583Z,29.95
2023-03-11T00:29:13.166Z,28.15
2023-03-11T00:30:18.694Z,30.40
2023-03-11T00:31:22.406Z,30.67
2023-03-11T00:32:26.098Z,29.77
2023-03-11T00:33:29.776Z,27.40
2023-03-11T00:34:33.455Z,30.35
2023-03-11T00:35:37.371Z,32.50
2023-03-11T00:36:41.073Z,31.30
2023-03-11T00:37:46.295Z,31.17
2023-03-11T00:38:50.030Z,30.45
2023-03-11T00:39:53.745Z,31.13
2023-03-11T00:40:57.347Z,29.07
2023-03-11T00:42:00.931Z,29.42
2023-03-11T00:43:06.250Z,27.65
2023-03-11T00:44:09.879Z,29.10
2023-03-11T00:45:15.024Z,29.17
2023-03-11T00:46:18.780Z,30.40
2023-03-11T00:47:22.459Z,31.35
2023-03-11T00:48:26.399Z,30.50
2023-03-11T00:49:29.999Z,32.13
2023-03-11T00:50:35.100Z,30.13
2023-03-11T00:51:38.756Z,28.67
2023-03-11T00:52:42.387Z,31.17
2023-03-11T00:53:46.488Z,30.40
2023-03-11T00:54:50.142Z,28.92
2023-03-11T00:55:53.783Z,30.70
2023-03-11T00:56:57.462Z,28.83
2023-03-11T00:58:02.255Z,30.05
2023-03-11T00:59:07.526Z,29.27
2023-03-11T01:00:15.266Z,28.60
2023-03-11T01:01:21.105Z,28.50
2023-03-11T01:02:24.801Z,27.77
2023-03-11T01:03:28.592Z,29.60
2023-03-11T01:04:32.269Z,29.42
2023-03-11T01:05:36.346Z,28.25
2023-03-11T01:06:45.527Z,29.15
2023-03-11T01:07:49.751Z,29.63
2023-03-11T01:08:53.439Z,30.00
2023-03-11T01:09:57.027Z,30.98
2023-03-11T01:11:01.445Z,31.02
2023-03-11T01:12:05.346Z,29.15
2023-03-11T01:13:09.049Z,28.40
2023-03-11T01:14:14.482Z,28.90
2023-03-11T01:15:22.065Z,29.45
2023-03-11T01:16:25.754Z,26.88
2023-03-11T01:17:29.470Z,30.08
2023-03-11T01:18:33.082Z,29.37
2023-03-11T01:19:36.807Z,28.20
2023-03-11T01:20:40.873Z,33.25
2023-03-11T01:21:44.491Z,32.10
2023-03-11T01:22:48.145Z,31.02
2023-03-11T01:23:51.785Z,30.17
2023-03-11T01:24:55.434Z,32.58
2023-03-11T01:25:59.366Z,30.25
2023-03-11T01:27:03.005Z,33.17
2023-03-11T01:28:07.415Z,33.50
2023-03-11T01:29:11.066Z,31.37
2023-03-11T01:30:18.677Z,30.45
2023-03-11T01:31:22.381Z,31.02
2023-03-11T01:32:26.114Z,32.13
2023-03-11T01:33:29.751Z,31.30
2023-03-11T01:34:33.337Z,31.60
2023-03-11T01:35:37.031Z,31.17
2023-03-11T01:36:40.748Z,30.67
2023-03-11T01:37:44.664Z,29.45
2023-03-11T01:38:48.379Z,31.52
2023-03-11T01:39:52.023Z,30.17
2023-03-11T01:40:55.626Z,30.13
2023-03-11T01:41:59.315Z,31.45
2023-03-11T01:43:05.216Z,30.35
2023-03-11T01:44:11.752Z,33.75
2023-03-11T01:45:42.833Z,31.13
2023-03-11T01:47:22.999Z,30.20
2023-03-11T01:48:26.580Z,33.33
2023-03-11T01:49:30.273Z,32.97
2023-03-11T01:50:37.470Z,32.55
2023-03-11T01:51:43.696Z,31.27
2023-03-11T01:52:48.292Z,34.35
2023-03-11T01:53:53.038Z,32.58
2023-03-11T01:54:56.800Z,34.03
2023-03-11T01:56:02.112Z,31.27
2023-03-11T01:57:08.765Z,30.77
2023-03-11T01:58:16.517Z,32.85
2023-03-11T01:59:24.946Z,34.20
2023-03-11T02:00:28.671Z,32.47
2023-03-11T02:01:35.452Z,31.92
2023-03-11T02:02:45.929Z,31.17
2023-03-11T02:03:49.976Z,32.97
2023-03-11T02:04:55.331Z,32.42
2023-03-11T02:06:01.050Z,33.08
2023-03-11T02:07:08.515Z,34.50
2023-03-11T02:08:12.327Z,31.83
2023-03-11T02:09:23.226Z,32.75
2023-03-11T02:10:27.340Z,31.90
2023-03-11T02:11:34.087Z,33.08
2023-03-11T02:12:38.568Z,31.98
2023-03-11T02:13:44.878Z,32.40
2023-03-11T02:14:51.448Z,28.50
2023-03-11T02:15:55.243Z,30.65
2023-03-11T02:17:01.712Z,30.13
2023-03-11T02:18:07.214Z,30.80
2023-03-11T02:19:24.589Z,28.90
2023-03-11T02:20:43.390Z,31.88
2023-03-11T02:21:47.401Z,34.53
2023-03-11T02:22:51.574Z,30.88
2023-03-11T02:24:03.400Z,31.45
2023-03-11T02:25:15.370Z,33.47
2023-03-11T02:26:27.205Z,33.05
2023-03-11T02:27:36.511Z,32.67
2023-03-11T02:28:41.984Z,32.67
2023-03-11T02:29:46.632Z,30.63
2023-03-11T02:30:51.189Z,31.13
2023-03-11T02:31:56.225Z,30.40
2023-03-11T02:33:00.880Z,31.55
2023-03-11T02:34:06.866Z,32.33
2023-03-11T02:35:10.856Z,31.73
2023-03-11T02:36:34.594Z,29.70
2023-03-11T02:37:38.610Z,30.23
2023-03-11T02:38:42.371Z,32.90
2023-03-11T02:39:48.106Z,31.45
2023-03-11T02:40:57.061Z,31.25
2023-03-11T02:42:05.956Z,31.93
2023-03-11T02:43:16.213Z,30.35
2023-03-11T02:44:20.014Z,33.20
2023-03-11T02:45:26.684Z,34.72
2023-03-11T02:46:33.036Z,33.58
2023-03-11T02:47:38.932Z,31.83
2023-03-11T02:48:45.978Z,31.40
2023-03-11T02:49:49.955Z,32.13
2023-03-11T02:50:54.384Z,32.35
2023-03-11T02:51:58.150Z,32.47
2023-03-11T02:53:01.936Z,34.50
2023-03-11T02:54:07.163Z,32.65
2023-03-11T02:55:11.455Z,33.60
2023-03-11T02:56:15.162Z,32.40
2023-03-11T02:57:20.497Z,33.15
2023-03-11T02:58:26.000Z,33.93
2023-03-11T02:59:29.711Z,32.35
2023-03-11T03:00:33.666Z,32.78
2023-03-11T03:01:43.210Z,33.75
2023-03-11T03:02:47.576Z,32.55
2023-03-11T03:03:51.625Z,33.40
2023-03-11T03:04:55.366Z,32.42
2023-03-11T03:05:59.099Z,33.75
2023-03-11T03:07:02.852Z,32.13
2023-03-11T03:08:08.912Z,33.40
2023-03-11T03:09:12.800Z,33.07
2023-03-11T03:10:17.931Z,31.67
2023-03-11T03:11:21.720Z,34.92
2023-03-11T03:12:25.513Z,33.40
2023-03-11T03:13:30.952Z,32.53
2023-03-11T03:14:37.013Z,34.53
2023-03-11T03:15:40.755Z,36.45
2023-03-11T03:16:44.660Z,34.47
2023-03-11T03:17:51.404Z,36.03
2023-03-11T03:18:55.123Z,32.95
2023-03-11T03:19:58.914Z,33.13
2023-03-11T03:21:02.584Z,33.75
2023-03-11T03:22:06.556Z,34.38
2023-03-11T03:23:11.975Z,32.10
2023-03-11T03:24:21.196Z,32.30
2023-03-11T03:25:27.595Z,33.77
2023-03-11T03:26:31.217Z,31.52
2023-03-11T03:27:35.608Z,34.97
2023-03-11T03:28:43.167Z,33.22
2023-03-11T03:29:49.807Z,38.92
2023-03-11T03:30:53.591Z,38.40
2023-03-11T03:31:59.933Z,39.65
2023-03-11T03:33:03.650Z,35.67
2023-03-11T03:34:09.275Z,41.20
2023-03-11T03:35:17.127Z,38.80
2023-03-11T03:36:20.920Z,37.43
2023-03-11T03:37:27.238Z,38.00
2023-03-11T03:38:30.911Z,38.60
2023-03-11T03:39:34.606Z,36.38
2023-03-11T03:40:38.410Z,36.50
2023-03-11T03:41:46.574Z,39.43
2023-03-11T03:42:50.356Z,36.15
2023-03-11T03:43:58.503Z,35.80
2023-03-11T03:45:02.285Z,38.03
2023-03-11T03:46:07.088Z,38.42
2023-03-11T03:47:13.234Z,38.73
2023-03-11T03:48:17.266Z,36.65
2023-03-11T03:49:20.998Z,37.10
2023-03-11T03:50:25.122Z,37.63
2023-03-11T03:51:31.670Z,35.55
2023-03-11T03:52:36.529Z,37.33
2023-03-11T03:53:40.328Z,38.17
2023-03-11T03:54:46.872Z,36.90
2023-03-11T03:55:50.582Z,35.75
2023-03-11T03:56:54.454Z,34.92
2023-03-11T03:57:58.456Z,37.77
2023-03-11T04:00:21.398Z,35.65
2023-03-11T04:01:25.157Z,35.17
2023-03-11T04:02:29.284Z,35.50
2023-03-11T04:04:52.956Z,36.35
2023-03-11T04:06:05.891Z,35.00
2023-03-11T04:07:11.870Z,36.65
2023-03-11T04:09:32.904Z,36.63
2023-03-11T04:10:36.731Z,36.55
2023-03-11T04:11:56.288Z,34.63
2023-03-11T04:13:00.066Z,33.70
2023-03-11T04:14:06.082Z,33.40
2023-03-11T04:15:10.587Z,32.83
2023-03-11T04:16:21.029Z,35.10
2023-03-11T04:17:37.483Z,37.50
2023-03-11T04:18:42.968Z,36.83
2023-03-11T04:19:46.756Z,35.95
2023-03-11T04:20:57.423Z,37.37
2023-03-11T04:22:01.211Z,37.17
2023-03-11T04:23:04.975Z,36.67
2023-03-11T04:25:28.439Z,35.38
2023-03-11T04:26:32.217Z,35.70
2023-03-11T04:27:41.495Z,34.63
2023-03-11T04:28:45.310Z,37.30
2023-03-11T04:29:50.876Z,35.10
2023-03-11T04:30:54.699Z,33.35
2023-03-11T04:31:58.429Z,35.07
2023-03-11T04:33:02.173Z,35.90
2023-03-11T04:34:05.905Z,37.60
2023-03-11T04:35:10.090Z,37.03
2023-03-11T04:36:14.058Z,36.72
2023-03-11T04:37:17.833Z,38.37
2023-03-11T04:38:21.663Z,38.38
2023-03-11T04:39:27.159Z,36.92
2023-03-11T04:40:30.848Z,35.80
2023-03-11T04:41:34.624Z,38.63
2023-03-11T04:42:38.466Z,35.00
2023-03-11T04:43:45.257Z,35.92
2023-03-11T04:44:50.665Z,35.55
2023-03-11T04:45:57.261Z,35.75
2023-03-11T04:47:03.865Z,36.85
2023-03-11T04:48:10.677Z,34.97
2023-03-11T04:49:14.476Z,37.13
2023-03-11T04:50:19.071Z,37.42
2023-03-11T04:51:22.839Z,38.03
2023-03-11T04:52:29.684Z,36.70
2023-03-11T04:53:35.527Z,36.13
2023-03-11T04:54:39.392Z,35.03
2023-03-11T04:55:43.210Z,34.70
2023-03-11T04:57:02.829Z,35.85
2023-03-11T04:58:06.674Z,34.55
2023-03-11T04:59:12.519Z,35.10
2023-03-11T05:00:19.598Z,33.10
2023-03-11T05:01:23.389Z,35.80
2023-03-11T05:02:37.698Z,31.30
2023-03-11T05:03:41.492Z,31.95
2023-03-11T05:04:45.410Z,32.50
2023-03-11T05:05:51.290Z,31.98
2023-03-11T05:06:55.014Z,33.13
2023-03-11T05:08:01.394Z,32.60
2023-03-11T05:09:10.389Z,34.17
2023-03-11T05:10:14.550Z,32.20
2023-03-11T05:11:21.419Z,33.70
2023-03-11T05:12:36.457Z,33.80
2023-03-11T05:13:40.253Z,32.80
2023-03-11T05:14:46.195Z,33.40
2023-03-11T05:15:56.763Z,31.93
2023-03-11T05:17:00.482Z,35.17
2023-03-11T05:18:04.409Z,35.72
2023-03-11T05:19:08.358Z,34.63
2023-03-11T05:20:15.105Z,34.83
2023-03-11T05:21:19.417Z,37.13
2023-03-11T05:22:23.536Z,35.95
2023-03-11T05:23:27.282Z,33.75
2023-03-11T05:24:31.202Z,35.35
2023-03-11T05:25:34.909Z,35.60
2023-03-11T05:26:38.590Z,32.83
2023-03-11T05:27:42.393Z,35.85
2023-03-11T05:28:46.192Z,33.78
2023-03-11T05:29:49.943Z,33.20
2023-03-11T05:30:55.293Z,34.58
2023-03-11T05:32:01.249Z,33.50
2023-03-11T05:33:05.096Z,33.90
2023-03-11T05:34:11.607Z,36.78
2023-03-11T05:35:19.850Z,33.58
2023-03-11T05:36:23.529Z,34.05
2023-03-11T05:37:27.377Z,32.93
2023-03-11T05:38:33.287Z,32.55
2023-03-11T05:39:37.050Z,32.95
2023-03-11T05:40:40.915Z,34.15
2023-03-11T05:41:48.663Z,34.00
2023-03-11T05:42:52.475Z,34.23
2023-03-11T05:43:56.192Z,33.42
2023-03-11T05:45:02.679Z,34.65
2023-03-11T05:46:11.466Z,34.88
2023-03-11T05:47:18.112Z,36.05
2023-03-11T05:48:24.749Z,36.03
2023-03-11T05:49:29.107Z,34.25
2023-03-11T05:50:32.927Z,35.42
2023-03-11T05:51:36.728Z,35.92
2023-03-11T05:52:40.388Z,35.75
2023-03-11T05:53:44.339Z,37.27
2023-03-11T05:54:51.564Z,36.40
2023-03-11T05:55:59.220Z,35.05
2023-03-11T05:57:05.971Z,36.35
2023-03-11T05:58:11.466Z,37.45
2023-03-11T05:59:21.248Z,34.90
2023-03-11T06:00:24.976Z,33.67
2023-03-11T06:01:30.474Z,34.42
2023-03-11T06:02:34.221Z,32.72
2023-03-11T06:03:40.391Z,33.60
2023-03-11T06:04:47.134Z,35.40
2023-03-11T06:05:51.454Z,34.72
2023-03-11T06:06:55.256Z,35.97
2023-03-11T06:07:58.997Z,35.17
2023-03-11T06:09:04.931Z,35.72
2023-03-11T06:10:14.890Z,34.20
2023-03-11T06:11:19.024Z,35.03
2023-03-11T06:12:22.843Z,35.92
2023-03-11T06:13:29.437Z,34.90
2023-03-11T06:14:33.180Z,35.20
2023-03-11T06:15:37.692Z,34.63
2023-03-11T06:16:43.364Z,35.45
2023-03-11T06:17:47.138Z,33.72
2023-03-11T06:18:53.785Z,35.30
2023-03-11T06:19:57.563Z,34.20
2023-03-11T06:21:02.486Z,33.30
2023-03-11T06:22:06.318Z,34.00
2023-03-11T06:23:10.449Z,36.75
2023-03-11T06:24:14.338Z,35.65
2023-03-11T06:25:18.347Z,35.65
2023-03-11T06:26:24.244Z,35.43
2023-03-11T06:27:30.728Z,36.33
2023-03-11T06:28:34.672Z,35.22
2023-03-11T06:29:38.504Z,35.03
2023-03-11T06:30:42.470Z,34.25
2023-03-11T06:31:50.777Z,33.30
2023-03-11T06:32:57.409Z,34.33
2023-03-11T06:34:01.216Z,32.00
2023-03-11T06:35:05.521Z,33.63
2023-03-11T06:36:12.857Z,34.45
2023-03-11T06:37:18.773Z,33.90
2023-03-11T06:38:22.533Z,31.40
2023-03-11T06:39:26.259Z,32.55
2023-03-11T06:40:33.013Z,32.97
2023-03-11T06:41:39.811Z,34.80
2023-03-11T06:42:45.959Z,35.07
2023-03-11T06:43:53.707Z,32.60
2023-03-11T06:44:59.782Z,32.00
2023-03-11T06:46:11.374Z,33.33
2023-03-11T06:47:42.462Z,34.92
2023-03-11T06:48:46.846Z,33.00
2023-03-11T06:49:51.661Z,34.28
2023-03-11T06:50:58.222Z,32.63
2023-03-11T06:52:01.953Z,32.13
2023-03-11T06:53:10.149Z,32.97
2023-03-11T06:54:13.896Z,34.10
2023-03-11T06:55:22.390Z,35.13
2023-03-11T06:56:31.523Z,33.08
2023-03-11T06:57:37.904Z,32.55
2023-03-11T06:58:43.299Z,35.20
2023-03-11T06:59:47.107Z,33.13
2023-03-11T07:00:50.832Z,32.92
2023-03-11T07:01:54.652Z,34.33
2023-03-11T07:03:00.035Z,36.03
2023-03-11T07:04:07.055Z,35.15
2023-03-11T07:05:11.427Z,32.00
2023-03-11T07:06:18.933Z,35.15
2023-03-11T07:07:24.634Z,35.72
2023-03-11T07:08:29.416Z,33.25
2023-03-11T07:09:33.164Z,34.67
2023-03-11T07:10:44.501Z,37.27
2023-03-11T07:11:50.605Z,37.42
2023-03-11T07:12:54.421Z,35.65
2023-03-11T07:14:00.675Z,33.13
2023-03-11T07:15:05.422Z,36.15
2023-03-11T07:16:17.045Z,36.30
2023-03-11T07:17:23.526Z,34.90
2023-03-11T07:18:29.031Z,34.78
2023-03-11T07:19:35.615Z,36.22
2023-03-11T07:20:39.375Z,38.08
2023-03-11T07:21:43.313Z,37.17
2023-03-11T07:22:50.526Z,37.97
2023-03-11T07:23:56.012Z,36.97
2023-03-11T07:25:02.978Z,36.40
2023-03-11T07:26:08.995Z,37.20
2023-03-11T07:27:15.559Z,34.30
2023-03-11T07:28:21.736Z,36.10
2023-03-11T07:29:25.476Z,35.58
2023-03-11T07:30:35.043Z,39.10
2023-03-11T07:31:39.041Z,39.90
2023-03-11T07:32:43.567Z,38.60
2023-03-11T07:33:49.090Z,38.97
2023-03-11T07:34:52.882Z,39.53
2023-03-11T07:35:56.683Z,37.95
2023-03-11T07:37:00.750Z,38.78
2023-03-11T07:38:04.658Z,37.50
2023-03-11T07:39:08.842Z,37.05
2023-03-11T07:40:13.550Z,39.30
2023-03-11T07:41:17.393Z,40.10
2023-03-11T07:42:21.914Z,40.92
2023-03-11T07:43:28.646Z,38.33
2023-03-11T07:44:32.411Z,37.92
2023-03-11T07:45:36.299Z,38.80
2023-03-11T07:46:42.524Z,40.10
2023-03-11T07:47:46.261Z,39.85
2023-03-11T07:48:55.088Z,39.70
2023-03-11T07:49:58.841Z,40.30
2023-03-11T07:51:04.347Z,38.60
2023-03-11T07:52:08.443Z,39.60
2023-03-11T07:53:12.188Z,36.80
2023-03-11T07:54:18.076Z,39.17
2023-03-11T07:55:21.868Z,39.15
2023-03-11T07:56:27.270Z,39.60
2023-03-11T07:57:37.912Z,42.17
2023-03-11T07:58:43.573Z,41.05
2023-03-11T07:59:48.997Z,39.50
2023-03-11T08:00:53.223Z,38.53
2023-03-11T08:01:56.962Z,43.90
2023-03-11T08:03:02.170Z,43.42
2023-03-11T08:04:12.924Z,42.67
2023-03-11T08:05:21.012Z,38.10
2023-03-11T08:06:31.609Z,42.07
2023-03-11T08:07:35.753Z,39.65
2023-03-11T08:08:39.584Z,37.70
2023-03-11T08:09:43.414Z,38.63
2023-03-11T08:10:47.179Z,38.17
2023-03-11T08:12:01.370Z,38.73
2023-03-11T08:14:24.285Z,38.50
2023-03-11T08:15:28.265Z,39.88
2023-03-11T08:16:32.106Z,39.70
2023-03-11T08:17:35.829Z,35.43
2023-03-11T08:18:42.743Z,35.03
2023-03-11T08:19:53.469Z,35.08
2023-03-11T08:21:01.420Z,34.65
2023-03-11T08:22:06.209Z,37.13
2023-03-11T08:23:10.231Z,36.53
2023-03-11T08:24:14.986Z,35.78
2023-03-11T08:25:19.034Z,36.25
2023-03-11T08:26:26.059Z,38.83
2023-03-11T08:27:33.007Z,39.22
2023-03-11T08:28:37.815Z,37.90
2023-03-11T08:29:42.068Z,37.28
2023-03-11T08:30:46.214Z,34.45
2023-03-11T08:31:50.005Z,39.20
2023-03-11T08:32:57.067Z,37.95
2023-03-11T08:34:03.151Z,35.93
2023-03-11T08:35:17.717Z,34.78
2023-03-11T08:36:22.000Z,32.67
2023-03-11T08:37:28.037Z,36.88
2023-03-11T08:38:34.158Z,33.85
2023-03-11T08:39:45.482Z,35.30
2023-03-11T08:40:49.322Z,35.45
2023-03-11T08:41:53.702Z,35.25
2023-03-11T08:44:20.054Z,34.45
2023-03-11T08:45:27.010Z,35.33
2023-03-11T08:46:34.630Z,36.97
2023-03-11T08:47:39.259Z,35.22
2023-03-11T08:48:45.598Z,37.05
2023-03-11T08:49:55.090Z,37.00
2023-03-11T08:51:03.368Z,33.83
2023-03-11T08:52:07.733Z,37.38
2023-03-11T08:53:14.620Z,35.80
2023-03-11T08:54:21.193Z,35.70
2023-03-11T08:55:27.422Z,34.53
2023-03-11T08:56:31.529Z,36.37
2023-03-11T08:57:38.262Z,35.50
2023-03-11T08:58:44.888Z,34.47
2023-03-11T08:59:51.599Z,34.75
2023-03-11T09:00:55.902Z,36.78
2023-03-11T09:02:02.647Z,32.30
2023-03-11T09:03:06.739Z,36.25
2023-03-11T09:04:10.737Z,32.38
2023-03-11T09:05:21.972Z,31.95
2023-03-11T09:06:27.413Z,33.40
2023-03-11T09:07:31.291Z,34.03
2023-03-11T09:08:35.753Z,33.60
2023-03-11T09:09:39.710Z,34.63
2023-03-11T09:10:45.468Z,31.67
2023-03-11T09:11:49.515Z,31.98
2023-03-11T09:12:56.054Z,32.93
2023-03-11T09:14:02.992Z,30.52
2023-03-11T09:15:07.598Z,32.10
2023-03-11T09:16:23.547Z,32.47
2023-03-11T09:17:27.342Z,31.70
2023-03-11T09:18:32.473Z,31.73
2023-03-11T09:19:36.332Z,30.25
2023-03-11T09:20:40.419Z,32.40
2023-03-11T09:21:46.032Z,32.50
2023-03-11T09:22:58.825Z,33.03
2023-03-11T09:24:04.938Z,31.33
2023-03-11T09:25:10.817Z,29.65
2023-03-11T09:26:14.962Z,33.33
2023-03-11T09:27:20.891Z,31.30
2023-03-11T09:28:24.839Z,31.58
2023-03-11T09:29:32.308Z,29.77
2023-03-11T09:30:38.999Z,31.98
2023-03-11T09:31:48.232Z,30.45
2023-03-11T09:32:55.966Z,30.35
2023-03-11T09:34:02.651Z,28.38
2023-03-11T09:35:09.267Z,32.20
2023-03-11T09:36:16.803Z,31.08
2023-03-11T09:37:22.307Z,31.45
2023-03-11T09:38:26.469Z,31.70
2023-03-11T09:39:30.507Z,31.42
2023-03-11T09:40:47.926Z,32.33
2023-03-11T09:41:59.222Z,30.60
2023-03-11T09:43:12.628Z,30.27
2023-03-11T09:44:24.340Z,30.30
2023-03-11T09:45:30.917Z,30.00
2023-03-11T09:46:51.944Z,28.97
2023-03-11T09:48:09.625Z,31.20
2023-03-11T09:49:27.805Z,30.13
2023-03-11T09:50:35.868Z,29.38
2023-03-11T09:51:43.914Z,29.90
2023-03-11T09:53:03.210Z,29.73
2023-03-11T09:54:12.654Z,27.02
2023-03-11T09:55:32.622Z,27.00
2023-03-11T09:56:42.866Z,29.70
2023-03-11T09:57:49.032Z,27.60
2023-03-11T09:59:05.807Z,29.53
2023-03-11T10:00:16.320Z,26.23
2023-03-11T10:01:25.417Z,28.58
2023-03-11T10:02:29.584Z,28.40
2023-03-11T10:03:39.790Z,27.77
2023-03-11T10:04:53.874Z,28.80
2023-03-11T10:06:13.154Z,27.17
2023-03-11T10:07:19.982Z,28.52
2023-03-11T10:08:36.564Z,28.52
2023-03-11T10:09:46.566Z,29.67
2023-03-11T10:11:02.472Z,29.03
2023-03-11T10:12:22.594Z,28.48
2023-03-11T10:15:18.974Z,26.95
2023-03-11T10:16:32.252Z,26.27
2023-03-11T10:18:03.771Z,26.50
2023-03-11T10:19:19.813Z,26.15
2023-03-11T10:20:28.515Z,24.45
2023-03-11T10:21:46.604Z,24.70
2023-03-11T10:23:07.534Z,26.52
2023-03-11T10:24:37.577Z,27.13
2023-03-11T10:26:06.565Z,26.60
2023-03-11T10:27:16.305Z,26.00
2023-03-11T10:28:31.932Z,24.42
2023-03-11T10:29:54.347Z,26.27
2023-03-11T10:31:06.796Z,25.60
2023-03-11T10:32:21.617Z,24.98
2023-03-11T10:33:40.006Z,27.02
2023-03-11T10:34:48.626Z,27.95
2023-03-11T10:35:59.829Z,25.70
2023-03-11T10:37:07.951Z,26.87
2023-03-11T10:38:19.178Z,27.17
2023-03-11T10:39:25.379Z,27.70
2023-03-11T10:40:32.906Z,26.83
2023-03-11T10:41:51.489Z,27.05
2023-03-11T20:02:13.355Z,23.98
